Time;durP1;ratioP1;P1;durP2;ratioP2;P2;SDS_P1;SDS_P2;PMS_P1;PMS_P2;Temp;Humidity;BMP_temperature;BMP_pressure;BME280_temperature;BME280_humidity;BME280_pressure;Samples;Min_cycle;Max_cycle;Signal;HPM_P1;HPM_P2
2022/03/09 00:00:26;;;;;;;3.35;2.47;;;3.50;76.70;;;;;;5024704;28;20203;-70
2022/03/09 00:02:54;;;;;;;4.35;3.45;;;3.40;76.80;;;;;;5027983;28;20230;-69
2022/03/09 00:05:20;;;;;;;3.20;2.88;;;3.40;77.10;;;;;;5027974;28;20211;-69
2022/03/09 00:07:47;;;;;;;5.57;3.03;;;3.30;77.10;;;;;;5027644;28;20739;-69
2022/03/09 00:10:13;;;;;;;4.70;3.17;;;3.30;77.10;;;;;;5016273;28;20207;-68
2022/03/09 00:12:40;;;;;;;3.55;2.92;;;3.30;77.20;;;;;;5027795;28;20215;-68
2022/03/09 00:15:07;;;;;;;4.50;2.40;;;3.30;77.20;;;;;;5028332;28;20252;-69
2022/03/09 00:17:34;;;;;;;3.15;2.85;;;3.30;76.80;;;;;;5032204;28;20209;-68
2022/03/09 00:20:02;;;;;;;1.55;1.45;;;3.40;76.70;;;;;;5031258;28;20201;-67
2022/03/09 00:22:29;;;;;;;4.82;2.72;;;3.40;76.70;;;;;;5030262;28;20226;-68
2022/03/09 00:24:55;;;;;;;4.45;2.83;;;3.30;76.80;;;;;;5031016;28;20645;-69
2022/03/09 00:27:22;;;;;;;2.83;2.20;;;3.40;76.80;;;;;;5030552;28;20204;-70
2022/03/09 00:29:49;;;;;;;4.43;2.47;;;3.40;76.50;;;;;;5031295;28;20242;-67
2022/03/09 00:32:16;;;;;;;3.25;2.95;;;3.50;76.40;;;;;;5031400;28;20219;-70
2022/03/09 00:34:43;;;;;;;2.65;2.45;;;3.50;76.10;;;;;;5025387;28;20206;-69
2022/03/09 00:37:11;;;;;;;3.35;2.72;;;3.50;76.10;;;;;;5030949;28;20211;-67
2022/03/09 00:39:37;;;;;;;2.45;2.05;;;3.50;76.20;;;;;;5031080;28;20686;-68
2022/03/09 00:42:05;;;;;;;8.43;2.60;;;3.60;76.30;;;;;;5030938;28;20635;-68
2022/03/09 00:44:31;;;;;;;2.83;2.55;;;3.60;76.60;;;;;;5029928;28;20299;-68
2022/03/09 00:46:58;;;;;;;6.78;3.20;;;3.50;76.80;;;;;;5030970;28;20202;-69
2022/03/09 00:49:25;;;;;;;4.70;3.42;;;3.40;77.10;;;;;;5030887;28;20711;-68
2022/03/09 00:51:51;;;;;;;3.38;3.03;;;3.40;77.50;;;;;;5030970;28;20295;-68
2022/03/09 00:54:19;;;;;;;9.07;3.78;;;3.50;77.50;;;;;;5022353;28;20269;-70
2022/03/09 00:56:46;;;;;;;4.20;3.30;;;3.40;77.30;;;;;;5031361;28;20679;-69
2022/03/09 00:59:13;;;;;;;2.78;2.42;;;3.40;77.40;;;;;;5030082;28;20672;-68
2022/03/09 01:01:39;;;;;;;2.75;2.55;;;3.50;77.60;;;;;;5028090;28;20226;-67
2022/03/09 01:04:06;;;;;;;3.95;3.20;;;3.40;77.70;;;;;;5030400;28;20613;-68
2022/03/09 01:06:33;;;;;;;2.92;2.58;;;3.50;79.20;;;;;;5030566;28;20733;-69
2022/03/09 01:09:01;;;;;;;2.60;2.40;;;3.50;78.60;;;;;;5030633;28;20241;-69
2022/03/09 01:11:29;;;;;;;6.20;3.03;;;3.40;78.90;;;;;;5028983;28;20774;-69
2022/03/09 01:13:57;;;;;;;2.60;2.40;;;3.30;79.30;;;;;;5027973;28;20225;-68
2022/03/09 01:16:23;;;;;;;2.17;2.08;;;3.40;78.70;;;;;;5029762;28;20296;-68
2022/03/09 01:18:50;;;;;;;2.55;2.35;;;3.40;78.60;;;;;;5030537;28;20877;-70
2022/03/09 01:21:17;;;;;;;2.83;2.30;;;3.30;78.60;;;;;;5030501;28;20277;-70
2022/03/09 01:23:43;;;;;;;2.60;2.20;;;3.30;79.20;;;;;;5027563;28;20230;-69
2022/03/09 01:26:10;;;;;;;4.05;2.63;;;3.20;78.60;;;;;;5021287;28;20218;-68
2022/03/09 01:28:38;;;;;;;2.50;2.10;;;3.20;78.90;;;;;;5024946;28;20320;-69
2022/03/09 01:31:05;;;;;;;3.75;2.60;;;3.10;79.30;;;;;;5030496;28;20215;-69
2022/03/09 01:33:32;;;;;;;2.92;2.70;;;3.10;79.40;;;;;;5029211;28;20199;-69
2022/03/09 01:35:58;;;;;;;3.08;1.80;;;3.20;79.30;;;;;;5030024;28;20204;-69
2022/03/09 01:38:25;;;;;;;3.67;2.70;;;3.20;79.20;;;;;;5028619;28;20200;-70
2022/03/09 01:40:52;;;;;;;5.47;2.40;;;3.20;79.40;;;;;;5030488;28;20253;-68
2022/03/09 01:43:19;;;;;;;3.30;2.78;;;3.10;79.10;;;;;;5025224;28;20234;-71
2022/03/09 01:45:47;;;;;;;2.85;2.53;;;3.00;79.20;;;;;;5020865;28;20199;-70
2022/03/09 01:48:14;;;;;;;4.00;3.70;;;2.90;79.70;;;;;;5026098;28;20211;-69
2022/03/09 01:50:43;;;;;;;3.30;3.00;;;2.90;80.50;;;;;;5022935;28;20244;-70
2022/03/09 01:53:10;;;;;;;5.13;3.33;;;2.80;81.10;;;;;;5028756;28;20226;-70
2022/03/09 01:55:38;;;;;;;3.08;2.75;;;2.80;81.50;;;;;;5029534;28;20204;-68
2022/03/09 01:58:05;;;;;;;8.77;3.15;;;2.70;82.00;;;;;;5028691;28;20209;-69
2022/03/09 02:00:31;;;;;;;3.65;2.20;;;2.60;82.20;;;;;;5028496;28;20199;-68
2022/03/09 02:02:59;;;;;;;2.35;2.20;;;2.60;82.40;;;;;;5028938;28;20256;-69
2022/03/09 02:05:26;;;;;;;3.78;3.25;;;2.50;82.50;;;;;;5029409;28;20761;-70
2022/03/09 02:10:39;;;;;;;1.95;1.85;;;2.30;83.20;;;;;;5029377;28;20217;-68
2022/03/09 02:13:07;;;;;;;2.17;1.90;;;2.40;82.90;;;;;;5028078;28;20676;-67
2022/03/09 02:15:34;;;;;;;4.03;1.92;;;2.30;82.80;;;;;;5031394;28;20599;-69
2022/03/09 02:18:03;;;;;;;2.53;2.08;;;2.40;82.70;;;;;;5031623;28;20205;-70
2022/03/09 02:20:30;;;;;;;2.88;2.67;;;2.40;82.40;;;;;;5029796;28;20672;-70
2022/03/09 02:22:58;;;;;;;3.17;2.78;;;2.50;82.00;;;;;;5028487;28;20731;-67
2022/03/09 02:25:25;;;;;;;5.45;3.17;;;2.60;81.50;;;;;;5028341;28;20577;-70
2022/03/09 02:27:51;;;;;;;2.58;2.38;;;2.60;81.50;;;;;;5029618;28;20206;-69
2022/03/09 02:30:20;;;;;;;4.18;2.40;;;2.50;81.40;;;;;;5029189;28;20264;-68
2022/03/09 02:32:48;;;;;;;3.00;2.80;;;2.60;81.30;;;;;;5028393;28;20219;-69
2022/03/09 02:35:16;;;;;;;3.72;2.20;;;2.50;81.50;;;;;;5028748;28;20688;-71
2022/03/09 02:37:44;;;;;;;2.58;2.35;;;2.40;81.60;;;;;;5026542;28;20213;-68
2022/03/09 02:40:14;;;;;;;3.50;2.35;;;2.30;82.00;;;;;;5028651;28;20954;-68
2022/03/09 02:42:41;;;;;;;2.50;2.05;;;2.20;82.50;;;;;;5026136;28;20231;-68
2022/03/09 02:45:08;;;;;;;4.55;2.50;;;2.20;82.60;;;;;;5028931;28;20757;-69
2022/03/09 02:47:34;;;;;;;5.80;3.03;;;2.30;82.40;;;;;;5020131;28;20267;-68
2022/03/09 02:50:01;;;;;;;2.75;1.85;;;2.20;82.30;;;;;;5028578;28;20195;-69
2022/03/09 02:52:28;;;;;;;5.13;2.78;;;2.30;82.20;;;;;;5028800;28;20232;-69
2022/03/09 02:54:55;;;;;;;2.83;2.60;;;2.20;82.10;;;;;;5028115;28;20198;-68
2022/03/09 02:57:23;;;;;;;3.13;2.88;;;2.20;82.20;;;;;;5028544;28;20198;-69
2022/03/09 02:59:50;;;;;;;3.95;2.42;;;2.20;81.80;;;;;;5028722;28;20202;-68
2022/03/09 03:02:17;;;;;;;3.78;3.47;;;2.20;81.70;;;;;;5028868;28;20230;-67
2022/03/09 03:04:44;;;;;;;2.08;1.88;;;2.20;81.30;;;;;;5026371;28;20276;-69
2022/03/09 03:07:10;;;;;;;2.60;1.90;;;2.30;81.80;;;;;;5028151;28;20203;-67
2022/03/09 03:09:37;;;;;;;2.00;1.83;;;2.40;80.80;;;;;;5027409;28;20249;-69
2022/03/09 03:12:04;;;;;;;3.20;2.90;;;2.40;80.60;;;;;;5028721;28;20251;-70
2022/03/09 03:14:32;;;;;;;2.83;2.58;;;2.40;80.40;;;;;;5028151;28;20660;-69
2022/03/09 03:16:59;;;;;;;2.08;1.55;;;2.40;80.60;;;;;;5028848;28;20272;-70
2022/03/09 03:19:26;;;;;;;2.42;2.03;;;2.40;80.40;;;;;;5028218;28;20257;-68
2022/03/09 03:21:52;;;;;;;2.03;1.63;;;2.50;80.30;;;;;;5027159;28;20226;-69
2022/03/09 03:24:19;;;;;;;60.83;55.42;;;2.50;80.30;;;;;;5027551;28;20269;-69
2022/03/09 03:26:46;;;;;;;3.85;3.10;;;2.50;80.40;;;;;;5029080;28;20210;-67
2022/03/09 03:29:12;;;;;;;2.92;2.63;;;2.40;80.60;;;;;;5027980;28;20633;-68
2022/03/09 03:31:40;;;;;;;3.90;1.90;;;2.40;80.90;;;;;;5028530;28;20234;-68
2022/03/09 03:34:07;;;;;;;3.47;2.47;;;2.40;81.20;;;;;;5028170;28;20190;-70
2022/03/09 03:36:33;;;;;;;3.22;2.17;;;2.40;81.30;;;;;;5028374;28;20611;-69
2022/03/09 03:39:00;;;;;;;2.63;1.80;;;2.40;81.60;;;;;;5028011;28;20248;-69
2022/03/09 03:41:27;;;;;;;2.35;2.03;;;2.40;81.70;;;;;;5027836;28;20790;-68
2022/03/09 03:43:53;;;;;;;3.15;1.80;;;2.30;81.80;;;;;;5027896;28;20194;-69
2022/03/09 03:46:20;;;;;;;2.13;1.92;;;2.20;82.50;;;;;;5028179;28;20222;-66
2022/03/09 03:48:48;;;;;;;2.60;2.15;;;2.20;83.00;;;;;;5015173;28;20263;-68
2022/03/09 03:51:15;;;;;;;2.35;2.15;;;2.20;83.60;;;;;;5031148;28;20241;-68
2022/03/09 03:53:41;;;;;;;3.53;2.63;;;2.20;84.20;;;;;;5031161;28;20616;-70
2022/03/09 03:56:08;;;;;;;3.72;3.05;;;2.20;84.60;;;;;;5031470;28;20206;-68
2022/03/09 03:58:35;;;;;;;3.78;2.25;;;2.30;84.10;;;;;;5032046;28;20691;-70
2022/03/09 04:01:01;;;;;;;2.08;1.88;;;2.20;83.80;;;;;;5031764;28;20327;-68
2022/03/09 04:03:28;;;;;;;3.33;2.45;;;2.20;83.10;;;;;;5031609;28;20680;-69
2022/03/09 04:05:56;;;;;;;3.20;2.22;;;2.20;83.60;;;;;;5031848;28;20285;-67
2022/03/09 04:08:23;;;;;;;2.55;1.77;;;2.10;83.50;;;;;;5031020;28;20238;-67
2022/03/09 04:10:51;;;;;;;1.80;1.70;;;2.10;83.80;;;;;;5030855;28;20226;-68
2022/03/09 04:13:17;;;;;;;2.65;2.33;;;2.00;84.30;;;;;;5031589;28;20694;-69
2022/03/09 04:15:44;;;;;;;3.65;2.65;;;2.10;84.10;;;;;;5031257;28;20202;-68
2022/03/09 04:18:10;;;;;;;2.50;2.30;;;2.10;83.60;;;;;;5031496;28;20255;-68
2022/03/09 04:20:37;;;;;;;3.15;2.80;;;2.00;83.50;;;;;;5031559;28;20202;-69
2022/03/09 04:23:08;;;;;;;2.90;2.60;;;2.00;83.00;;;;;;5031377;28;20212;-68
2022/03/09 04:25:35;;;;;;;1.88;1.77;;;2.10;83.10;;;;;;5031306;28;20282;-67
2022/03/09 04:28:02;;;;;;;3.53;2.05;;;2.10;83.70;;;;;;5032041;28;20256;-71
2022/03/09 04:30:29;;;;;;;3.13;2.30;;;2.10;83.30;;;;;;5031383;28;20297;-69
2022/03/09 04:32:56;;;;;;;2.47;2.38;;;2.10;83.50;;;;;;5031062;28;20207;-68
2022/03/09 04:35:23;;;;;;;3.03;2.83;;;2.10;84.10;;;;;;5031343;28;20195;-68
2022/03/09 04:37:49;;;;;;;4.97;3.58;;;2.00;84.60;;;;;;5030772;28;20206;-69
2022/03/09 04:40:17;;;;;;;2.80;2.15;;;1.90;85.20;;;;;;5030976;28;20244;-69
2022/03/09 04:42:44;;;;;;;4.68;2.72;;;1.80;85.50;;;;;;5030577;28;20226;-71
2022/03/09 04:45:11;;;;;;;2.20;1.88;;;1.80;85.40;;;;;;5031209;28;20270;-68
2022/03/09 04:47:38;;;;;;;2.65;2.45;;;1.80;85.30;;;;;;5031099;28;20256;-69
2022/03/09 04:50:05;;;;;;;2.88;2.63;;;1.80;85.00;;;;;;5031090;28;20254;-68
2022/03/09 04:52:32;;;;;;;2.85;2.17;;;1.80;85.30;;;;;;5030812;28;20284;-69
2022/03/09 04:54:59;;;;;;;2.83;2.60;;;1.70;85.20;;;;;;5030304;28;20255;-70
2022/03/09 04:57:27;;;;;;;3.03;2.15;;;1.70;85.30;;;;;;5031314;28;20214;-68
2022/03/09 04:59:54;;;;;;;2.95;2.50;;;1.70;85.30;;;;;;5029706;28;20760;-68
2022/03/09 05:02:21;;;;;;;2.78;2.28;;;1.80;85.30;;;;;;5029395;28;20771;-69
2022/03/09 05:04:47;;;;;;;1.45;1.35;;;1.80;85.20;;;;;;5030721;28;20222;-69
2022/03/09 05:07:14;;;;;;;3.40;3.10;;;1.80;84.80;;;;;;5028198;28;20275;-69
2022/03/09 05:09:41;;;;;;;2.78;2.13;;;1.80;84.90;;;;;;5030991;28;20693;-69
2022/03/09 05:12:08;;;;;;;2.95;1.92;;;1.80;84.70;;;;;;5030802;28;20223;-71
2022/03/09 05:14:36;;;;;;;3.30;2.45;;;1.80;84.50;;;;;;5030244;28;20206;-70
2022/03/09 05:17:03;;;;;;;4.80;3.33;;;1.80;84.40;;;;;;5030891;28;20757;-67
2022/03/09 05:19:30;;;;;;;3.78;2.28;;;1.80;84.50;;;;;;5030339;28;20209;-67
2022/03/09 05:21:57;;;;;;;4.32;2.20;;;1.80;84.60;;;;;;5026355;28;20218;-70
2022/03/09 05:24:23;;;;;;;2.35;1.70;;;1.80;84.60;;;;;;5029142;28;20256;-69
2022/03/09 05:26:50;;;;;;;2.33;2.05;;;1.70;84.80;;;;;;5030362;28;20697;-69
2022/03/09 05:29:16;;;;;;;4.90;2.10;;;1.70;85.00;;;;;;5028971;28;20217;-69
2022/03/09 05:31:45;;;;;;;3.83;2.33;;;1.70;84.80;;;;;;5029957;28;20232;-68
2022/03/09 05:34:12;;;;;;;3.55;3.08;;;1.70;84.40;;;;;;5028547;28;20220;-68
2022/03/09 05:36:39;;;;;;;1.92;1.77;;;1.80;83.90;;;;;;5030241;28;20202;-68
2022/03/09 05:39:06;;;;;;;2.53;2.08;;;1.80;83.90;;;;;;5029229;28;20203;-68
2022/03/09 05:41:34;;;;;;;4.13;2.95;;;1.90;83.70;;;;;;5029357;28;20228;-68
2022/03/09 05:44:00;;;;;;;5.55;2.15;;;1.80;84.10;;;;;;5029279;28;20200;-69
2022/03/09 05:46:27;;;;;;;3.25;2.70;;;1.80;84.20;;;;;;5029704;28;20226;-69
2022/03/09 05:48:55;;;;;;;3.72;3.10;;;1.70;84.30;;;;;;5029186;28;20222;-69
2022/03/09 05:51:22;;;;;;;18.80;2.50;;;1.70;84.60;;;;;;5030181;28;20777;-69
2022/03/09 05:53:49;;;;;;;2.90;2.65;;;1.70;84.70;;;;;;5027256;28;20205;-69
2022/03/09 05:56:15;;;;;;;3.20;2.90;;;1.60;84.80;;;;;;5029232;28;20206;-67
2022/03/09 05:58:42;;;;;;;1.75;1.65;;;1.60;84.80;;;;;;5029886;28;20214;-70
2022/03/09 06:01:09;;;;;;;3.03;2.78;;;1.60;84.80;;;;;;5028587;28;20268;-66
2022/03/09 06:03:35;;;;;;;3.13;2.70;;;1.60;85.00;;;;;;5029269;28;20209;-69
2022/03/09 06:06:04;;;;;;;2.67;2.25;;;1.60;85.00;;;;;;5027438;28;20225;-69
2022/03/09 06:08:30;;;;;;;1.83;1.73;;;1.60;85.10;;;;;;5029376;28;20748;-68
2022/03/09 06:10:57;;;;;;;3.35;3.05;;;1.60;85.10;;;;;;5023250;28;20275;-69
2022/03/09 06:13:23;;;;;;;3.30;2.97;;;1.60;85.10;;;;;;5016920;28;20209;-69
2022/03/09 06:15:50;;;;;;;3.63;3.33;;;1.60;84.80;;;;;;5024473;28;20711;-68
2022/03/09 06:18:17;;;;;;;1.65;1.55;;;1.60;85.10;;;;;;5028797;28;20205;-68
2022/03/09 06:20:43;;;;;;;3.28;2.97;;;1.60;84.90;;;;;;5025220;28;20218;-67
2022/03/09 06:23:11;;;;;;;3.85;3.42;;;1.70;85.10;;;;;;5024690;28;20282;-66
2022/03/09 06:25:38;;;;;;;1.98;1.88;;;1.60;85.00;;;;;;5025308;28;20226;-69
2022/03/09 06:28:05;;;;;;;3.40;3.03;;;1.60;85.10;;;;;;5024070;28;20317;-68
2022/03/09 06:30:32;;;;;;;3.50;2.95;;;1.60;85.10;;;;;;5028666;28;20254;-67
2022/03/09 06:32:58;;;;;;;7.03;2.67;;;1.70;85.00;;;;;;5028044;28;20204;-66
2022/03/09 06:35:25;;;;;;;3.13;2.92;;;1.80;84.90;;;;;;5026844;28;20248;-67
2022/03/09 06:37:52;;;;;;;2.45;2.25;;;1.80;84.60;;;;;;5022781;28;20568;-67
2022/03/09 06:40:21;;;;;;;3.42;2.90;;;1.90;84.40;;;;;;5027893;28;20212;-68
2022/03/09 06:42:48;;;;;;;3.13;2.42;;;2.00;84.40;;;;;;5028446;28;20221;-67
2022/03/09 06:45:15;;;;;;;2.13;1.70;;;2.00;84.70;;;;;;5027091;28;20236;-66
2022/03/09 06:47:41;;;;;;;4.68;2.80;;;1.90;85.10;;;;;;5027843;28;20236;-68
2022/03/09 06:50:09;;;;;;;4.78;2.17;;;1.90;85.50;;;;;;5020301;28;20221;-70
2022/03/09 06:52:36;;;;;;;3.83;3.53;;;1.90;85.10;;;;;;5030088;28;20239;-70
2022/03/09 06:55:04;;;;;;;4.82;2.88;;;2.00;85.10;;;;;;5028488;28;20201;-67
2022/03/09 06:57:33;;;;;;;3.90;2.75;;;2.10;84.80;;;;;;5028172;28;20206;-68
2022/03/09 07:00:00;;;;;;;3.47;3.15;;;2.20;84.60;;;;;;5028730;28;20213;-67
2022/03/09 07:02:27;;;;;;;3.30;2.50;;;2.20;84.50;;;;;;5025398;28;20221;-69
2022/03/09 07:04:54;;;;;;;3.92;2.88;;;2.20;84.80;;;;;;5023310;28;20213;-70
2022/03/09 07:07:21;;;;;;;2.60;2.40;;;2.30;84.30;;;;;;5019754;28;20210;-69
2022/03/09 07:09:47;;;;;;;2.75;2.47;;;2.40;84.20;;;;;;5027941;28;20774;-69
2022/03/09 07:12:14;;;;;;;3.53;2.33;;;2.50;84.30;;;;;;5027216;28;20287;-68
2022/03/09 07:14:42;;;;;;;4.00;2.63;;;2.60;83.90;;;;;;5023159;28;20260;-71
2022/03/09 07:17:09;;;;;;;2.83;2.25;;;2.80;83.50;;;;;;5027480;28;20702;-70
2022/03/09 07:19:35;;;;;;;3.05;1.98;;;2.90;83.30;;;;;;5028725;28;20206;-69
2022/03/09 07:22:02;;;;;;;3.35;2.50;;;3.10;82.90;;;;;;5028456;28;20226;-70
2022/03/09 07:24:29;;;;;;;1.80;1.70;;;3.20;82.80;;;;;;5027201;28;20206;-71
2022/03/09 07:26:56;;;;;;;4.88;3.53;;;3.30;82.40;;;;;;5032395;28;20219;-69
2022/03/09 07:29:23;;;;;;;4.28;1.92;;;3.40;82.20;;;;;;5028307;28;20304;-71
2022/03/09 07:31:51;;;;;;;4.45;2.72;;;3.50;82.20;;;;;;5025955;28;20222;-68
2022/03/09 07:34:18;;;;;;;3.10;2.85;;;3.60;82.20;;;;;;5031530;28;20225;-69
2022/03/09 07:36:44;;;;;;;2.50;2.15;;;3.70;82.20;;;;;;5028528;28;20203;-69
2022/03/09 07:39:11;;;;;;;3.67;2.67;;;3.70;82.10;;;;;;5025278;28;20216;-69
2022/03/09 07:41:38;;;;;;;3.28;2.92;;;3.90;81.90;;;;;;5026741;28;20717;-68
2022/03/09 07:44:04;;;;;;;3.13;2.53;;;4.00;81.60;;;;;;5031414;28;20260;-69
2022/03/09 07:46:31;;;;;;;5.72;2.10;;;4.10;81.10;;;;;;5031298;28;20222;-67
2022/03/09 07:48:59;;;;;;;2.85;2.65;;;4.30;80.80;;;;;;5030868;28;20210;-70
2022/03/09 07:51:26;;;;;;;4.45;2.38;;;4.40;80.30;;;;;;5025380;28;20230;-70
2022/03/09 07:53:53;;;;;;;3.67;3.25;;;4.60;79.60;;;;;;5029607;28;20320;-69
2022/03/09 07:56:19;;;;;;;4.03;3.45;;;4.70;79.40;;;;;;5031985;28;20203;-70
2022/03/09 07:58:46;;;;;;;2.90;2.55;;;4.80;79.30;;;;;;5030596;28;20268;-69
2022/03/09 08:01:13;;;;;;;3.25;2.38;;;5.00;79.40;;;;;;5029286;28;20260;-67
2022/03/09 08:03:40;;;;;;;3.00;2.40;;;5.10;78.90;;;;;;5027068;28;20199;-68
2022/03/09 08:06:08;;;;;;;2.45;2.25;;;5.20;78.60;;;;;;5030648;28;20305;-69
2022/03/09 08:08:35;;;;;;;3.15;2.95;;;5.30;78.70;;;;;;5032097;28;20789;-68
2022/03/09 08:11:02;;;;;;;4.40;3.80;;;5.40;78.20;;;;;;5031128;28;20716;-69
2022/03/09 08:13:28;;;;;;;4.90;2.85;;;5.60;78.10;;;;;;5032359;28;20258;-69
2022/03/09 08:15:55;;;;;;;2.90;2.47;;;5.80;77.40;;;;;;5030858;28;20204;-68
2022/03/09 08:18:22;;;;;;;2.78;2.47;;;5.90;77.10;;;;;;5030446;28;20224;-67
2022/03/09 08:20:48;;;;;;;3.35;3.05;;;6.00;76.70;;;;;;5027659;28;20221;-67
2022/03/09 08:23:16;;;;;;;3.83;2.78;;;6.10;76.50;;;;;;5031040;28;20276;-66
2022/03/09 08:25:43;;;;;;;4.32;2.40;;;6.10;76.30;;;;;;5031193;28;20215;-68
2022/03/09 08:28:10;;;;;;;4.75;3.30;;;6.20;76.20;;;;;;5031593;28;20255;-67
2022/03/09 08:30:38;;;;;;;3.80;2.95;;;6.30;75.80;;;;;;5025562;28;20199;-68
2022/03/09 08:33:04;;;;;;;3.45;3.15;;;6.40;75.80;;;;;;5029900;28;20658;-67
2022/03/09 08:35:32;;;;;;;3.17;2.85;;;6.50;75.70;;;;;;5029210;28;20273;-66
2022/03/09 08:37:59;;;;;;;3.03;2.70;;;6.60;75.40;;;;;;5032401;28;20297;-66
2022/03/09 08:40:27;;;;;;;3.05;2.47;;;6.70;75.50;;;;;;5031529;28;20205;-68
2022/03/09 08:42:53;;;;;;;6.15;3.08;;;6.80;75.20;;;;;;5030523;28;20208;-67
2022/03/09 08:45:20;;;;;;;3.92;3.55;;;6.90;74.80;;;;;;5031736;28;20199;-66
2022/03/09 08:47:47;;;;;;;3.70;3.40;;;7.00;78.00;;;;;;5031533;28;20198;-68
2022/03/09 08:50:14;;;;;;;2.63;2.30;;;7.40;75.80;;;;;;5030616;28;20301;-64
2022/03/09 08:52:40;;;;;;;7.28;3.20;;;7.70;75.20;;;;;;5027102;28;20222;-68
2022/03/09 08:55:08;;;;;;;5.20;3.35;;;7.80;73.60;;;;;;5030448;28;20213;-68
2022/03/09 08:57:36;;;;;;;4.53;3.80;;;7.80;73.30;;;;;;5031651;28;20202;-69
2022/03/09 09:00:04;;;;;;;6.90;2.88;;;7.90;73.40;;;;;;5022025;28;20202;-69
2022/03/09 09:02:32;;;;;;;3.72;3.20;;;7.80;72.60;;;;;;5028342;28;20226;-70
2022/03/09 09:04:59;;;;;;;4.90;3.80;;;8.00;72.40;;;;;;5030122;28;20639;-70
2022/03/09 09:07:25;;;;;;;3.55;3.25;;;8.00;72.70;;;;;;5029791;28;20712;-70
2022/03/09 09:09:52;;;;;;;4.63;3.70;;;8.10;71.60;;;;;;5028822;28;20711;-69
2022/03/09 09:12:19;;;;;;;3.55;3.25;;;8.00;71.50;;;;;;5028164;28;20226;-69
2022/03/09 09:14:47;;;;;;;5.05;4.55;;;8.10;71.80;;;;;;5030184;28;20254;-68
2022/03/09 09:17:13;;;;;;;4.78;4.35;;;8.10;71.50;;;;;;5029545;28;20203;-70
2022/03/09 09:19:40;;;;;;;4.78;4.38;;;8.10;71.90;;;;;;5020808;28;20272;-68
2022/03/09 09:22:07;;;;;;;4.72;2.80;;;8.10;72.40;;;;;;5028810;28;20272;-69
2022/03/09 09:24:34;;;;;;;7.75;4.50;;;8.40;72.40;;;;;;5029423;28;20194;-71
2022/03/09 09:27:00;;;;;;;4.03;3.40;;;8.50;72.30;;;;;;5030141;28;20858;-70
2022/03/09 09:29:27;;;;;;;4.07;3.75;;;8.70;72.00;;;;;;5027787;28;20203;-70
2022/03/09 09:31:55;;;;;;;4.50;4.10;;;8.80;71.80;;;;;;5025809;28;20284;-68
2022/03/09 09:34:22;;;;;;;5.07;4.60;;;9.00;70.80;;;;;;5027697;28;20269;-69
2022/03/09 09:36:49;;;;;;;11.82;4.82;;;9.10;71.30;;;;;;5029247;28;20195;-69
2022/03/09 09:39:18;;;;;;;5.33;3.57;;;9.20;71.70;;;;;;5028971;28;20232;-69
2022/03/09 09:41:47;;;;;;;3.80;3.43;;;9.50;70.40;;;;;;5021372;28;20480;-68
2022/03/09 09:44:15;;;;;;;6.15;3.53;;;9.50;68.10;;;;;;5028926;28;20449;-72
2022/03/09 09:46:43;;;;;;;5.60;4.07;;;9.70;68.60;;;;;;5023873;28;20238;-69
2022/03/09 09:49:14;;;;;;;3.27;2.63;;;9.60;67.40;;;;;;5027346;28;20538;-69
2022/03/09 09:51:41;;;;;;;5.07;3.80;;;9.80;67.50;;;;;;5028301;28;20899;-68
2022/03/09 09:54:10;;;;;;;4.10;3.47;;;9.80;67.60;;;;;;5026661;28;20778;-69
2022/03/09 09:56:38;;;;;;;4.70;3.60;;;10.00;66.20;;;;;;5025992;28;20794;-69
2022/03/09 09:59:05;;;;;;;5.63;4.67;;;10.20;65.70;;;;;;5028752;28;20519;-68
2022/03/09 10:01:32;;;;;;;3.20;2.90;;;10.30;66.10;;;;;;5027526;28;20910;-68
2022/03/09 10:03:59;;;;;;;4.90;4.20;;;10.40;65.60;;;;;;5029225;28;21042;-70
2022/03/09 10:06:27;;;;;;;4.13;3.30;;;10.60;64.30;;;;;;5028277;28;20990;-65
2022/03/09 10:09:01;;;;;;;4.33;3.80;;;10.70;64.00;;;;;;5025582;28;20461;-69
2022/03/09 10:11:45;;;;;;;4.80;3.50;;;10.70;63.90;;;;;;5029142;28;20467;-69
2022/03/09 10:14:11;;;;;;;3.10;2.80;;;10.80;63.90;;;;;;5030496;28;20476;-69
2022/03/09 10:16:38;;;;;;;4.40;3.80;;;10.90;64.20;;;;;;5032357;28;20442;-68
2022/03/09 10:19:05;;;;;;;6.30;3.83;;;10.90;64.70;;;;;;5036697;28;20471;-69
2022/03/09 10:21:35;;;;;;;2.83;2.50;;;11.20;64.60;;;;;;5036366;28;20469;-69
2022/03/09 10:24:05;;;;;;;4.33;3.10;;;11.30;64.10;;;;;;5033326;28;20473;-68
2022/03/09 10:26:46;;;;;;;4.00;3.60;;;11.30;62.70;;;;;;5034031;28;20500;-68
2022/03/09 10:29:15;;;;;;;3.90;3.37;;;11.40;62.30;;;;;;5029006;28;20454;-68
2022/03/09 10:31:44;;;;;;;9.13;3.80;;;11.50;62.40;;;;;;5034685;28;20481;-68
2022/03/09 10:34:13;;;;;;;4.53;3.90;;;11.50;61.80;;;;;;5030215;28;20438;-68
2022/03/09 10:36:56;;;;;;;4.63;4.23;;;11.60;61.80;;;;;;5035168;28;20453;-68
2022/03/09 10:39:26;;;;;;;4.97;3.43;;;11.60;60.60;;;;;;5030599;28;20475;-68
2022/03/09 10:41:52;;;;;;;4.03;3.03;;;11.70;61.00;;;;;;5042414;28;20495;-69
2022/03/09 10:44:19;;;;;;;5.47;4.10;;;11.80;61.10;;;;;;5039448;28;20461;-67
2022/03/09 10:46:47;;;;;;;9.20;4.90;;;11.90;62.80;;;;;;5030841;28;20564;-65
2022/03/09 10:49:18;;;;;;;7.80;4.60;;;12.10;61.60;;;;;;5021889;28;20463;-69
2022/03/09 10:51:58;;;;;;;4.20;3.80;;;12.30;60.80;;;;;;5034534;28;20469;-68
2022/03/09 10:54:27;;;;;;;5.53;4.50;;;12.40;60.00;;;;;;5036327;28;20452;-68
2022/03/09 10:57:05;;;;;;;5.33;4.83;;;12.50;60.20;;;;;;5034448;28;20441;-69
2022/03/09 10:59:44;;;;;;;4.70;4.27;;;12.60;60.10;;;;;;5030148;28;20870;-69
2022/03/09 11:02:13;;;;;;;6.30;4.63;;;12.80;59.80;;;;;;5031716;28;20479;-71
2022/03/09 11:04:41;;;;;;;4.70;4.23;;;12.80;59.30;;;;;;5029192;28;20505;-69
2022/03/09 11:07:10;;;;;;;6.23;4.53;;;13.10;58.70;;;;;;5030223;28;20508;-69
2022/03/09 11:09:44;;;;;;;3.83;3.40;;;13.30;58.50;;;;;;5044402;28;20472;-70
2022/03/09 11:12:12;;;;;;;6.50;5.00;;;13.40;57.50;;;;;;5040884;28;20468;-69
2022/03/09 11:14:40;;;;;;;5.73;3.97;;;13.50;57.00;;;;;;5046205;28;20441;-68
2022/03/09 11:17:06;;;;;;;5.43;4.80;;;13.70;57.30;;;;;;5039114;28;20491;-69
2022/03/09 11:19:33;;;;;;;4.80;4.13;;;14.00;56.60;;;;;;5027441;28;20450;-69
2022/03/09 11:22:00;;;;;;;4.63;3.77;;;14.00;55.60;;;;;;5031880;28;20546;-68
2022/03/09 11:24:31;;;;;;;5.37;4.10;;;13.90;55.30;;;;;;5030426;28;20879;-68
2022/03/09 11:27:03;;;;;;;4.77;4.30;;;13.90;55.60;;;;;;5030670;28;20956;-69
2022/03/09 11:29:33;;;;;;;4.07;3.77;;;13.90;55.60;;;;;;5031901;28;20459;-70
2022/03/09 11:32:00;;;;;;;4.13;3.73;;;14.20;55.20;;;;;;5027086;28;21016;-68
2022/03/09 11:34:39;;;;;;;5.17;4.10;;;14.40;54.30;;;;;;5028466;28;20453;-69
2022/03/09 11:37:08;;;;;;;3.87;3.50;;;14.80;54.10;;;;;;5032823;28;20445;-72
2022/03/09 11:39:38;;;;;;;4.10;3.60;;;15.10;52.80;;;;;;5031766;28;20449;-67
2022/03/09 11:42:34;;;;;;;7.20;3.83;;;15.50;53.10;;;;;;5034214;28;20465;-69
2022/03/09 11:45:38;;;;;;;4.83;4.13;;;16.00;52.40;;;;;;5027344;28;20878;-69
2022/03/09 11:48:09;;;;;;;8.20;4.40;;;16.20;50.60;;;;;;5032246;28;20488;-69
2022/03/09 11:51:01;;;;;;;4.73;3.97;;;16.40;50.70;;;;;;5034570;28;20507;-67
2022/03/09 11:53:41;;;;;;;7.07;5.00;;;16.70;50.50;;;;;;5030168;28;20954;-69
2022/03/09 11:56:30;;;;;;;4.63;4.00;;;17.70;50.30;;;;;;5032573;28;20514;-68
2022/03/09 11:59:12;;;;;;;3.83;3.40;;;18.10;50.40;;;;;;5032145;28;20461;-69
2022/03/09 12:02:25;;;;;;;4.30;3.83;;;18.50;49.30;;;;;;5035748;28;20508;-70
2022/03/09 12:04:53;;;;;;;4.63;4.23;;;18.90;48.70;;;;;;5034719;28;20536;-69
2022/03/09 12:07:48;;;;;;;4.33;3.60;;;19.60;48.10;;;;;;5038026;28;20488;-68
2022/03/09 12:10:16;;;;;;;4.20;3.80;;;20.40;47.90;;;;;;4989483;28;20495;-68
2022/03/09 12:13:16;;;;;;;4.90;4.20;;;21.10;46.60;;;;;;5039080;28;20495;-70
2022/03/09 12:16:16;;;;;;;4.03;3.73;;;21.90;45.60;;;;;;5035068;28;20973;-68
2022/03/09 12:19:13;;;;;;;4.03;3.63;;;22.60;44.90;;;;;;5039220;28;20456;-69
2022/03/09 12:22:01;;;;;;;6.00;4.30;;;23.20;43.30;;;;;;5056359;22;20914;-70
2022/03/09 12:24:36;;;;;;;5.30;4.50;;;23.40;42.50;;;;;;5029442;28;20979;-71
2022/03/09 12:27:22;;;;;;;5.10;4.37;;;23.30;42.60;;;;;;5051510;28;21172;-69
2022/03/09 12:29:50;;;;;;;4.93;4.10;;;23.70;41.80;;;;;;5044250;28;20451;-71
2022/03/09 12:32:21;;;;;;;6.00;4.67;;;23.50;41.70;;;;;;5046816;28;20476;-71
2022/03/09 12:34:50;;;;;;;5.23;4.20;;;23.30;40.50;;;;;;5044991;28;20467;-72
2022/03/09 12:37:18;;;;;;;4.90;4.40;;;23.80;41.40;;;;;;5048137;28;20460;-71
2022/03/09 12:39:50;;;;;;;5.47;4.20;;;23.80;40.10;;;;;;5040452;28;20456;-71
2022/03/09 12:42:18;;;;;;;4.87;4.43;;;24.00;38.80;;;;;;5046380;28;20467;-72
2022/03/09 12:44:45;;;;;;;4.10;3.70;;;24.10;38.10;;;;;;5042338;28;20456;-67
2022/03/09 12:47:14;;;;;;;6.53;4.07;;;23.60;38.50;;;;;;5042198;28;20965;-66
2022/03/09 12:49:43;;;;;;;4.90;4.40;;;22.90;38.80;;;;;;5043588;28;20455;-66
2022/03/09 12:52:12;;;;;;;4.53;4.03;;;23.20;38.40;;;;;;5043964;28;20570;-67
2022/03/09 12:54:41;;;;;;;4.43;4.03;;;22.80;38.50;;;;;;5042912;28;20537;-70
2022/03/09 12:57:14;;;;;;;5.60;4.90;;;22.60;38.30;;;;;;5044790;28;20958;-63
2022/03/09 12:59:42;;;;;;;5.40;4.90;;;22.80;38.90;;;;;;5050347;28;20898;-64
2022/03/09 13:02:09;;;;;;;4.63;4.10;;;22.70;38.90;;;;;;5048420;28;20529;-63
2022/03/09 13:04:37;;;;;;;56.70;53.03;;;23.10;38.90;;;;;;5054638;28;20509;-63